createdAt,value
2023-02-12T00:04:48.924Z,7.07
2023-02-12T00:09:51.767Z,6.95
2023-02-12T00:14:55.928Z,6.85
2023-02-12T00:19:58.760Z,6.78
2023-02-12T00:25:01.608Z,6.66
2023-02-12T00:30:06.913Z,6.80
2023-02-12T00:35:10.326Z,6.82
2023-02-12T00:40:13.941Z,6.78
2023-02-12T00:45:18.533Z,6.83
2023-02-12T00:50:21.329Z,6.78
2023-02-12T00:55:24.172Z,6.66
2023-02-12T01:00:28.434Z,6.87
2023-02-12T01:05:33.669Z,6.78
2023-02-12T01:10:36.516Z,6.74
2023-02-12T01:15:40.826Z,7.04
2023-02-12T01:20:43.637Z,7.12
2023-02-12T01:25:46.427Z,6.96
2023-02-12T01:30:50.677Z,7.14
2023-02-12T01:35:53.887Z,7.04
2023-02-12T01:41:03.636Z,6.99
2023-02-12T01:46:13.882Z,6.88
2023-02-12T01:51:21.297Z,6.93
2023-02-12T01:56:26.109Z,6.97
2023-02-12T02:01:33.456Z,6.93
2023-02-12T02:06:41.037Z,7.21
2023-02-12T02:12:01.563Z,7.30
2023-02-12T02:17:25.441Z,7.07
2023-02-12T02:22:35.426Z,7.13
2023-02-12T02:27:46.686Z,7.05
2023-02-12T02:32:59.311Z,7.15
2023-02-12T02:38:15.990Z,7.06
2023-02-12T02:43:24.395Z,7.05
2023-02-12T02:48:34.974Z,7.02
2023-02-12T02:53:43.390Z,7.06
2023-02-12T02:58:53.546Z,6.91
2023-02-12T03:04:04.297Z,7.03
2023-02-12T03:09:20.352Z,6.73
2023-02-12T03:14:27.619Z,6.60
2023-02-12T03:19:36.311Z,6.69
2023-02-12T03:24:44.079Z,6.48
2023-02-12T03:29:47.502Z,6.42
2023-02-12T03:34:55.479Z,6.40
2023-02-12T03:40:06.343Z,6.28
2023-02-12T03:45:19.844Z,6.16
2023-02-12T03:50:30.992Z,6.46
2023-02-12T03:55:37.738Z,6.53
2023-02-12T04:00:41.126Z,6.48
2023-02-12T04:05:45.890Z,6.60
2023-02-12T04:11:03.948Z,6.48
2023-02-12T04:16:17.566Z,6.60
2023-02-12T04:21:39.222Z,6.72
2023-02-12T04:26:50.583Z,6.76
2023-02-12T04:31:59.350Z,6.72
2023-02-12T04:37:07.061Z,6.69
2023-02-12T04:42:10.134Z,6.73
2023-02-12T04:47:13.570Z,6.71
2023-02-12T04:52:17.778Z,6.66
2023-02-12T04:57:20.620Z,6.59
2023-02-12T05:02:23.467Z,6.70
2023-02-12T05:07:27.787Z,6.63
2023-02-12T05:12:30.558Z,6.64
2023-02-12T05:17:33.469Z,6.49
2023-02-12T05:22:37.664Z,6.42
2023-02-12T05:27:40.457Z,6.31
2023-02-12T05:32:43.307Z,6.40
2023-02-12T05:37:47.493Z,6.29
2023-02-12T05:42:50.324Z,6.12
2023-02-12T05:47:53.126Z,6.20
2023-02-12T05:52:57.295Z,6.20
2023-02-12T05:58:00.093Z,6.10
2023-02-12T06:03:02.923Z,6.11
2023-02-12T06:08:07.247Z,6.20
2023-02-12T06:13:10.056Z,6.31
2023-02-12T06:18:12.842Z,6.28
2023-02-12T06:23:17.036Z,6.24
2023-02-12T06:28:19.862Z,5.92
2023-02-12T06:33:22.892Z,5.80
2023-02-12T06:38:27.036Z,5.96
2023-02-12T06:43:29.909Z,6.00
2023-02-12T06:48:33.499Z,6.05
2023-02-12T06:53:38.155Z,5.95
2023-02-12T06:58:44.305Z,5.86
2023-02-12T07:03:49.849Z,5.94
2023-02-12T07:08:54.887Z,6.03
2023-02-12T07:13:57.775Z,6.21
2023-02-12T07:19:00.592Z,6.21
2023-02-12T07:24:04.828Z,6.44
2023-02-12T07:29:08.008Z,6.67
2023-02-12T07:34:11.659Z,6.63
2023-02-12T07:39:15.842Z,6.15
2023-02-12T07:44:18.652Z,6.46
2023-02-12T07:49:24.818Z,6.60
2023-02-12T07:54:29.167Z,6.47
2023-02-12T07:59:31.928Z,6.67
2023-02-12T08:04:34.801Z,6.74
2023-02-12T08:09:39.070Z,6.62
2023-02-12T08:14:42.122Z,6.53
2023-02-12T08:19:44.898Z,6.54
2023-02-12T08:24:49.914Z,6.47
2023-02-12T08:29:52.746Z,6.52
2023-02-12T08:34:55.626Z,6.37
2023-02-12T08:39:59.837Z,6.51
2023-02-12T08:45:02.663Z,6.57
2023-02-12T08:50:06.034Z,6.58
2023-02-12T08:55:10.348Z,6.42
2023-02-12T09:00:13.858Z,6.50
2023-02-12T09:05:16.788Z,6.49
2023-02-12T09:10:21.021Z,6.62
2023-02-12T09:15:23.830Z,6.47
2023-02-12T09:20:26.629Z,6.70
2023-02-12T09:25:30.837Z,6.34
2023-02-12T09:30:33.736Z,6.13
2023-02-12T09:35:37.372Z,6.56
2023-02-12T09:40:47.511Z,6.30
2023-02-12T09:45:58.037Z,6.39
2023-02-12T09:51:05.841Z,6.57
2023-02-12T09:56:15.273Z,6.10
2023-02-12T10:01:20.356Z,6.53
2023-02-12T10:06:26.930Z,6.40
2023-02-12T10:11:51.861Z,6.64
2023-02-12T10:17:05.085Z,6.74
2023-02-12T10:22:19.185Z,6.97
2023-02-12T10:27:35.782Z,6.95
2023-02-12T10:32:39.495Z,6.76
2023-02-12T10:37:46.423Z,7.16
2023-02-12T10:42:52.676Z,7.25
2023-02-12T10:48:05.666Z,7.03
2023-02-12T10:53:17.686Z,7.14
2023-02-12T10:58:25.063Z,7.57
2023-02-12T11:03:34.194Z,7.76
2023-02-12T11:08:39.109Z,7.51
2023-02-12T11:13:48.864Z,7.32
2023-02-12T11:18:59.808Z,7.44
2023-02-12T11:24:30.783Z,7.61
2023-02-12T11:29:34.922Z,8.00
2023-02-12T11:34:38.518Z,7.94
2023-02-12T11:39:42.079Z,7.74
2023-02-12T11:44:52.518Z,8.22
2023-02-12T11:49:59.930Z,8.01
2023-02-12T11:55:06.395Z,8.51
2023-02-12T12:00:18.811Z,8.24
2023-02-12T12:05:32.440Z,8.38
2023-02-12T12:10:40.677Z,8.49
2023-02-12T12:16:07.041Z,8.45
2023-02-12T12:21:15.692Z,8.77
2023-02-12T12:26:24.667Z,8.07
2023-02-12T12:31:33.679Z,8.33
2023-02-12T12:37:13.369Z,8.46
2023-02-12T12:42:30.979Z,8.66
2023-02-12T12:47:46.843Z,8.72
2023-02-12T12:53:05.805Z,8.42
2023-02-12T12:58:16.515Z,8.80
2023-02-12T13:03:36.880Z,8.86
2023-02-12T13:08:53.250Z,8.53
2023-02-12T13:14:08.633Z,8.48
2023-02-12T13:19:19.714Z,8.52
2023-02-12T13:24:31.501Z,8.46
2023-02-12T13:29:39.590Z,8.45
2023-02-12T13:34:45.395Z,8.39
2023-02-12T13:39:50.684Z,8.43
2023-02-12T13:45:01.387Z,8.69
2023-02-12T13:50:21.567Z,9.10
2023-02-12T13:55:30.346Z,9.29
2023-02-12T14:00:59.876Z,9.15
2023-02-12T14:06:16.702Z,8.95
2023-02-12T14:11:23.455Z,8.80
2023-02-12T14:16:41.419Z,8.77
2023-02-12T14:21:45.619Z,8.77
2023-02-12T14:26:48.629Z,8.74
2023-02-12T14:31:51.707Z,8.75
2023-02-12T14:37:16.127Z,8.69
2023-02-12T14:49:06.624Z,8.71
2023-02-12T14:54:27.838Z,8.68
2023-02-12T14:59:35.149Z,8.60
2023-02-12T15:04:39.459Z,8.58
2023-02-12T15:09:48.876Z,8.65
2023-02-12T15:15:02.262Z,8.59
2023-02-12T15:20:10.350Z,8.57
2023-02-12T15:25:22.990Z,8.53
2023-02-12T15:30:28.949Z,8.49
2023-02-12T15:35:33.697Z,8.46
2023-02-12T15:40:37.767Z,8.34
2023-02-12T15:45:40.577Z,8.29
2023-02-12T15:50:52.830Z,8.28
2023-02-12T15:55:57.810Z,8.29
2023-02-12T16:01:03.563Z,8.24
2023-02-12T16:06:11.506Z,8.23
2023-02-12T16:11:21.846Z,8.21
2023-02-12T16:16:26.877Z,8.19
2023-02-12T16:21:29.915Z,8.06
2023-02-12T16:26:34.267Z,8.06
2023-02-12T16:31:37.216Z,8.07
2023-02-12T16:36:47.466Z,8.07
2023-02-12T16:41:56.958Z,8.00
2023-02-12T16:47:01.441Z,7.99
2023-02-12T16:52:28.485Z,8.02
2023-02-12T16:57:32.791Z,8.01
2023-02-12T17:02:37.291Z,7.98
2023-02-12T17:07:40.130Z,7.94
2023-02-12T17:12:48.097Z,7.97
2023-02-12T17:17:51.016Z,7.98
2023-02-12T17:22:57.235Z,7.96
2023-02-12T17:28:01.547Z,7.91
2023-02-12T17:33:04.769Z,7.92
2023-02-12T17:38:08.101Z,7.92
2023-02-12T17:43:12.579Z,7.93
2023-02-12T17:48:17.308Z,7.95
2023-02-12T17:53:20.209Z,7.94
2023-02-12T17:58:24.499Z,7.88
2023-02-12T18:03:27.343Z,7.90
2023-02-12T18:08:30.743Z,7.91
2023-02-12T18:13:35.419Z,7.87
2023-02-12T18:18:40.085Z,7.85
2023-02-12T18:23:43.483Z,7.87
2023-02-12T18:28:47.799Z,7.87
2023-02-12T18:33:50.747Z,7.81
2023-02-12T18:38:54.053Z,7.83
2023-02-12T18:44:00.148Z,7.81
2023-02-12T18:49:03.822Z,7.81
2023-02-12T18:54:08.817Z,7.81
2023-02-12T18:59:15.576Z,7.78
2023-02-12T19:04:20.066Z,7.81
2023-02-12T19:09:24.919Z,7.80
2023-02-12T19:14:29.555Z,7.75
2023-02-12T19:19:32.433Z,7.71
2023-02-12T19:24:46.305Z,7.67
2023-02-12T19:29:51.329Z,7.68
2023-02-12T19:34:54.498Z,7.63
2023-02-12T19:39:57.337Z,7.64
2023-02-12T19:45:01.626Z,7.63
2023-02-12T19:50:05.210Z,7.63
2023-02-12T19:55:08.308Z,7.63
2023-02-12T20:00:14.599Z,7.62
2023-02-12T20:05:17.567Z,7.61
2023-02-12T20:10:20.586Z,7.58
2023-02-12T20:15:26.379Z,7.57
2023-02-12T20:20:29.283Z,7.53
2023-02-12T20:25:32.323Z,7.50
2023-02-12T20:37:05.630Z,7.44
2023-02-12T20:42:08.391Z,7.43
2023-02-12T20:47:11.123Z,7.44
2023-02-12T20:52:15.204Z,7.43
2023-02-12T20:57:18.186Z,7.41
2023-02-12T21:02:21.158Z,7.38
2023-02-12T21:07:25.271Z,7.38
2023-02-12T21:12:28.029Z,7.34
2023-02-12T21:17:31.155Z,7.32
2023-02-12T21:22:35.272Z,7.34
2023-02-12T21:27:40.590Z,7.38
2023-02-12T21:32:43.304Z,7.42
2023-02-12T21:37:47.394Z,7.42
2023-02-12T21:42:50.091Z,7.41
2023-02-12T21:47:52.812Z,7.41
2023-02-12T21:52:56.826Z,7.40
2023-02-12T21:57:59.495Z,7.41
2023-02-12T22:03:02.013Z,7.41
2023-02-12T22:08:06.631Z,7.36
2023-02-12T22:13:09.369Z,7.30
2023-02-12T22:18:12.120Z,7.32
2023-02-12T22:23:16.244Z,7.34
2023-02-12T22:28:19.060Z,7.30
2023-02-12T22:33:21.793Z,7.30
2023-02-12T22:38:26.156Z,7.32
2023-02-12T22:43:29.990Z,7.34
2023-02-12T22:48:32.747Z,7.33
2023-02-12T22:53:36.858Z,7.34
2023-02-12T22:58:40.293Z,7.37
2023-02-12T23:03:43.611Z,7.40
2023-02-12T23:08:50.919Z,7.37
2023-02-12T23:13:53.904Z,7.38
2023-02-12T23:18:57.459Z,7.36
2023-02-12T23:24:01.653Z,7.41
2023-02-12T23:29:04.532Z,7.39
2023-02-12T23:34:07.286Z,7.40
2023-02-12T23:39:13.492Z,7.40
2023-02-12T23:44:16.326Z,7.38
2023-02-12T23:49:19.408Z,7.39
2023-02-12T23:54:23.521Z,7.40
2023-02-12T23:59:26.640Z,7.41
